Airfield :
LOGIN :

Register | Disclaimer

   EN    FR    IT 

 










Legend :    VFR   Marginal VFR   IFR   Intensive IFR   Very Intensive IFR
Visi :
Ceiling :
>= 8 km
>= 3000ft
5 to 8 km
1000 to 3000 ft
1500m to 5 km
500 to 1000 ft
800 to 1500m
200 to 500 ft
< 800m
< 200 ft
Symbols :   Thunderstorms  Fog  Heavy snow  Heavy precipitations  Wind > 20 kt
SIGMETs :     Misc.  Thunderstorms  Icing  Turbulence  Mountain Waves  Volcanic Ashes






- Airport Elevation : 464 ft
- IATA code : EVX


LFOE - Evreux

CURRENT METAR :
  • 232030Z AUTO 27007KT CAVOK M00/M01 Q0998 NOSIG

EXPIRED METARs :
  • 232000Z AUTO 27007KT CAVOK M00/M01 Q0998 NOSIG
  • 231930Z AUTO 27007KT 9999 FEW031 00/M01 Q0998 NOSIG
  • 231900Z AUTO 28007KT CAVOK 00/M00 Q0997 NOSIG
  • 231830Z AUTO 27007KT CAVOK 01/00 Q0997 NOSIG
  • 231800Z AUTO 27007KT CAVOK 01/00 Q0996 NOSIG

Expired Forecast.



MET'MAP, your aeronautical weather chart ! - Copyright ORBIFLY December 2007 - Disclaimer

ORBIFLY MET'MAP TEAM :

Programming & Development : Alexandra Zaïnal
Concept & original design : Baudouin d'Aumeries
Assistance for programming : Marc-Olivier Méhu
Technical & hardware support : Manuel Goepfert

Contact : metmap@orbifly.com




SOURCES & CREDITS :

   NOAA